Nearby METAR Reports

 

KCOS - Colorado Springs, Colorado, USA
Distance from station: S 6mi, 9km
Updated: 10/23/2019 6:16pm
Snow, Fog, Overcast
Snow, Fog, Overcast
 Wind from N
Wind: N 16 mph , 26 km/h
Temperature: 34°F , 1°C
Wind Chill: 24°F , -4°C
Dew Point: 30°F , -1°C
Humidity: 87%
Barometer: 30.19 inHg , 1022.4 hPa
Summary: Snow, Fog
Clouds: Overcast
Visibility: 1/2 mile , 0.8 km
Cloud details: Mostly cloudy 900 ft
Overcast 3900 ft
2019/10/24 00:16 KCOS 240016Z 35014KT 1/2SM R17L/4500V5500FT SN FG BKN009 OVC039 01/M01 A3019 RMK AO2 P0002 T00061011
KAFF - Usaf Academy/Cos, Colorado, USA
Distance from station: NW 7mi, 12km
Updated: 10/23/2019 5:58pm
Light snow, Mist, Overcast
Light snow, Mist, Overcast
 Wind from NNW
Wind: NNW 8 mph , 13 km/h
Temperature: 32°F , 0°C
Wind Chill: 25°F , -4°C
Dew Point: 32°F , 0°C
Humidity: 100%
Barometer: 30.17 inHg , 1021.7 hPa
Summary: Light snow, Mist
Clouds: Overcast
Visibility: 5/8 mile , 1 km
Cloud details: Overcast 100 ft
2019/10/23 23:58 KAFF 232358Z 33007KT 5/8SM -SN BR OVC001 00/00 A3017 RMK AO2A SLP226 P0007 60015 T00011003 10117 20001 52038 RVRNO $
 
KFLY - Co Spngs Meadow, Colorado, USA
Distance from station: ENE 8mi, 13km
Updated: 10/23/2019 4:35pm
NOT Current
Snow, Overcast
Snow, Overcast
 Wind from NNE
Wind: NNE 17 mph , 28 km/h, Gust: 21 mph , 33 km/h
Temperature: 34°F , 1°C
Wind Chill: 23°F , -5°C
Dew Point: 32°F , 0°C
Humidity: 93%
Barometer: 30.14 inHg , 1020.7 hPa
Summary: Snow
Clouds: Overcast
Visibility: 1/2 mile , 0.8 km
Cloud details: Overcast 800 ft
2019/10/23 22:35 KFLY 232235Z AUTO 02015G18KT 1/2SM SN OVC008 01/00 A3014 RMK AO2 T00050000
KFCS - Fort Carson, Colorado, USA
Distance from station: S 17mi, 27km
Updated: 10/23/2019 6:19pm
Light drizzle, Overcast
Light drizzle, Overcast
 Wind from N
Wind: N 21 mph , 33 km/h
Temperature: 36°F , 2°C
Wind Chill: 25°F , -4°C
Dew Point: 30°F , -1°C
Humidity: 81%
Barometer: 30.17 inHg , 1021.7 hPa
Summary: Light Drizzle
Clouds: Overcast
Visibility: 10 miles , 16 km
Cloud details: Partly cloudy 3800 ft
Mostly cloudy 5000 ft
Overcast 6500 ft
2019/10/24 00:19 KFCS 240019Z AUTO 35018KT 10SM -DZ SCT038 BKN050 OVC065 02/M01 A3017 RMK AO2 DZB19 SLP248 $
 
KMNH - Monument/Elbert, Colorado, USA
Distance from station: N 22mi, 35km
Updated: 10/23/2019 6:12pm
Snow, Overcast
Snow, Overcast
 
Temperature: 30°F , -1°C
Dew Point: 30°F , -1°C
Humidity: 100%
Barometer: 30.22 inHg , 1023.4 hPa
Summary: Snow
Clouds: Overcast
Visibility: 3/4 mile , 1.2 km
Cloud details: Overcast 300 ft
2019/10/24 00:12 KMNH 240012Z AUTO 3/4SM SN OVC003 M01/M01 A3022 RMK AO2
K1V6 - Canon City, Colorado, USA
Distance from station: SSW 39mi, 62km
Updated: 10/23/2019 6:15pm
Partly cloudy
Partly cloudy
 Wind from ENE
Wind: ENE 17 mph , 28 km/h, Gust: 24 mph , 39 km/h
Temperature: 45°F , 7°C
Wind Chill: 38°F , 3°C
Dew Point: 32°F , 0°C
Humidity: 61%
Barometer: 30.09 inHg , 1019 hPa
Clouds: Partly cloudy
Visibility: 10 miles , 16 km
Cloud details: Partly cloudy 7000 ft
2019/10/24 00:15 K1V6 240015Z AUTO 06015G21KT 10SM SCT070 07/00 A3009 RMK AO2
 
KPUB - Pueblo, Colorado, USA
Distance from station: SSE 44mi, 71km
Updated: 10/23/2019 5:53pm
Overcast
Overcast
 Wind from NNE
Wind: NNE 29 mph , 46 km/h, Gust: 43 mph , 69 km/h
Temperature: 45°F , 7°C
Wind Chill: 35°F , 2°C
Dew Point: 30°F , -1°C
Humidity: 57%
Barometer: 30.12 inHg , 1020 hPa
Clouds: Overcast
Visibility: 10 miles , 16 km
Cloud details: Overcast 8500 ft
2019/10/23 23:53 KPUB 232353Z 03025G37KT 10SM OVC085 07/M01 A3012 RMK AO2 PK WND 03038/2307 WSHFT 2241 SLP189 T00721006 10161 20072 53036
KAPA - Denver/Arapahoe, Colorado, USA
Distance from station: N 47mi, 75km
Updated: 10/23/2019 6:14pm
Light snow, Mist, Overcast
Light snow, Mist, Overcast
 Wind from N
Wind: N 5 mph , 7 km/h
Temperature: 34°F , 1°C
Wind Chill: 29°F , -2°C
Dew Point: 32°F , 0°C
Humidity: 93%
Barometer: 30.22 inHg , 1023.4 hPa
Summary: Light snow, Mist
Clouds: Overcast
Visibility: 1/2 mile , 0.8 km
Cloud details: Mostly cloudy 400 ft
Overcast 1400 ft
2019/10/24 00:14 KAPA 240014Z 36004KT 1/2SM -SN BR BKN004 OVC014 01/00 A3022 RMK AO2 SFC VIS 1 PRESRR P0002 T00110000